sensor_id;sensor_type;location;lat;lon;timestamp;temperature;humidity
69382;DHT22;56560;50.692;12.844;2023-10-08T00:00:26;16.40;71.30
69382;DHT22;56560;50.692;12.844;2023-10-08T00:03:10;16.30;71.40
69382;DHT22;56560;50.692;12.844;2023-10-08T00:05:40;16.40;71.60
69382;DHT22;56560;50.692;12.844;2023-10-08T00:08:06;16.30;71.60
69382;DHT22;56560;50.692;12.844;2023-10-08T00:10:39;16.30;71.70
69382;DHT22;56560;50.692;12.844;2023-10-08T00:13:09;16.30;71.70
69382;DHT22;56560;50.692;12.844;2023-10-08T00:15:39;16.30;71.70
69382;DHT22;56560;50.692;12.844;2023-10-08T00:18:23;16.40;71.80
69382;DHT22;56560;50.692;12.844;2023-10-08T00:20:51;16.40;71.60
69382;DHT22;56560;50.692;12.844;2023-10-08T00:23:23;16.40;71.40
69382;DHT22;56560;50.692;12.844;2023-10-08T00:25:54;16.40;71.40
69382;DHT22;56560;50.692;12.844;2023-10-08T00:28:20;16.40;71.50
69382;DHT22;56560;50.692;12.844;2023-10-08T00:30:46;16.40;71.60
69382;DHT22;56560;50.692;12.844;2023-10-08T00:33:13;16.50;71.60
69382;DHT22;56560;50.692;12.844;2023-10-08T00:35:41;16.50;71.40
69382;DHT22;56560;50.692;12.844;2023-10-08T00:38:10;16.60;71.20
69382;DHT22;56560;50.692;12.844;2023-10-08T00:40:46;16.60;71.20
69382;DHT22;56560;50.692;12.844;2023-10-08T00:43:32;16.60;71.40
69382;DHT22;56560;50.692;12.844;2023-10-08T00:45:59;16.60;71.50
69382;DHT22;56560;50.692;12.844;2023-10-08T00:48:25;16.60;71.50
69382;DHT22;56560;50.692;12.844;2023-10-08T00:50:56;16.60;71.60
69382;DHT22;56560;50.692;12.844;2023-10-08T00:53:36;16.70;71.60
69382;DHT22;56560;50.692;12.844;2023-10-08T00:56:06;16.70;71.40
69382;DHT22;56560;50.692;12.844;2023-10-08T00:58:40;16.70;71.30
69382;DHT22;56560;50.692;12.844;2023-10-08T01:01:06;16.80;71.20
69382;DHT22;56560;50.692;12.844;2023-10-08T01:03:37;16.80;71.10
69382;DHT22;56560;50.692;12.844;2023-10-08T01:06:09;16.70;71.10
69382;DHT22;56560;50.692;12.844;2023-10-08T01:08:36;16.70;71.10
69382;DHT22;56560;50.692;12.844;2023-10-08T01:11:22;16.70;71.10
69382;DHT22;56560;50.692;12.844;2023-10-08T01:14:06;16.70;71.20
69382;DHT22;56560;50.692;12.844;2023-10-08T01:16:33;16.70;71.30
69382;DHT22;56560;50.692;12.844;2023-10-08T01:19:00;16.70;71.40
69382;DHT22;56560;50.692;12.844;2023-10-08T01:21:29;16.70;71.40
69382;DHT22;56560;50.692;12.844;2023-10-08T01:24:05;16.70;71.50
69382;DHT22;56560;50.692;12.844;2023-10-08T01:26:34;16.70;71.50
69382;DHT22;56560;50.692;12.844;2023-10-08T01:29:07;16.70;71.70
69382;DHT22;56560;50.692;12.844;2023-10-08T01:31:34;16.70;71.70
69382;DHT22;56560;50.692;12.844;2023-10-08T01:33:59;16.70;72.00
69382;DHT22;56560;50.692;12.844;2023-10-08T01:36:26;16.70;72.20
69382;DHT22;56560;50.692;12.844;2023-10-08T01:38:52;16.70;72.20
69382;DHT22;56560;50.692;12.844;2023-10-08T01:41:20;16.70;72.20
69382;DHT22;56560;50.692;12.844;2023-10-08T01:43:48;16.70;72.40
69382;DHT22;56560;50.692;12.844;2023-10-08T01:46:17;16.70;72.30
69382;DHT22;56560;50.692;12.844;2023-10-08T01:48:47;16.80;72.50
69382;DHT22;56560;50.692;12.844;2023-10-08T01:51:15;16.80;73.10
69382;DHT22;56560;50.692;12.844;2023-10-08T01:53:54;16.70;73.80
69382;DHT22;56560;50.692;12.844;2023-10-08T01:56:20;16.60;74.30
69382;DHT22;56560;50.692;12.844;2023-10-08T01:58:46;16.60;74.60
69382;DHT22;56560;50.692;12.844;2023-10-08T02:01:12;16.60;74.90
69382;DHT22;56560;50.692;12.844;2023-10-08T02:03:38;16.60;74.50
69382;DHT22;56560;50.692;12.844;2023-10-08T02:06:04;16.60;74.30
69382;DHT22;56560;50.692;12.844;2023-10-08T02:08:34;16.60;74.50
69382;DHT22;56560;50.692;12.844;2023-10-08T02:10:59;16.60;75.20
69382;DHT22;56560;50.692;12.844;2023-10-08T02:13:25;16.60;74.90
69382;DHT22;56560;50.692;12.844;2023-10-08T02:15:51;16.50;74.70
69382;DHT22;56560;50.692;12.844;2023-10-08T02:18:18;16.50;75.10
69382;DHT22;56560;50.692;12.844;2023-10-08T02:20:44;16.50;75.30
69382;DHT22;56560;50.692;12.844;2023-10-08T02:23:10;16.40;76.20
69382;DHT22;56560;50.692;12.844;2023-10-08T02:25:38;16.20;77.10
69382;DHT22;56560;50.692;12.844;2023-10-08T02:28:08;16.10;78.10
69382;DHT22;56560;50.692;12.844;2023-10-08T02:30:37;16.10;78.30
69382;DHT22;56560;50.692;12.844;2023-10-08T02:33:07;16.00;78.30
69382;DHT22;56560;50.692;12.844;2023-10-08T02:35:40;16.00;78.20
69382;DHT22;56560;50.692;12.844;2023-10-08T02:38:09;16.00;79.10
69382;DHT22;56560;50.692;12.844;2023-10-08T02:40:37;16.10;79.10
69382;DHT22;56560;50.692;12.844;2023-10-08T02:43:04;16.10;78.20
69382;DHT22;56560;50.692;12.844;2023-10-08T02:45:33;16.20;78.00
69382;DHT22;56560;50.692;12.844;2023-10-08T02:48:04;16.30;78.30
69382;DHT22;56560;50.692;12.844;2023-10-08T02:50:40;16.30;78.80
69382;DHT22;56560;50.692;12.844;2023-10-08T02:53:06;16.30;78.60
69382;DHT22;56560;50.692;12.844;2023-10-08T02:55:41;16.30;78.60
69382;DHT22;56560;50.692;12.844;2023-10-08T02:58:13;16.40;77.90
69382;DHT22;56560;50.692;12.844;2023-10-08T03:00:44;16.40;78.10
69382;DHT22;56560;50.692;12.844;2023-10-08T03:03:16;16.50;77.60
69382;DHT22;56560;50.692;12.844;2023-10-08T03:06:02;16.50;77.90
69382;DHT22;56560;50.692;12.844;2023-10-08T03:08:28;16.60;77.40
69382;DHT22;56560;50.692;12.844;2023-10-08T03:10:56;16.70;77.00
69382;DHT22;56560;50.692;12.844;2023-10-08T03:13:28;16.70;77.00
69382;DHT22;56560;50.692;12.844;2023-10-08T03:15:53;16.70;77.20
69382;DHT22;56560;50.692;12.844;2023-10-08T03:18:29;16.70;76.90
69382;DHT22;56560;50.692;12.844;2023-10-08T03:21:08;16.80;76.90
69382;DHT22;56560;50.692;12.844;2023-10-08T03:23:49;16.70;77.00
69382;DHT22;56560;50.692;12.844;2023-10-08T03:26:22;16.80;76.70
69382;DHT22;56560;50.692;12.844;2023-10-08T03:28:56;16.80;76.60
69382;DHT22;56560;50.692;12.844;2023-10-08T03:31:25;16.90;76.60
69382;DHT22;56560;50.692;12.844;2023-10-08T03:34:13;16.80;77.00
69382;DHT22;56560;50.692;12.844;2023-10-08T03:36:40;16.80;77.00
69382;DHT22;56560;50.692;12.844;2023-10-08T03:39:15;16.80;76.90
69382;DHT22;56560;50.692;12.844;2023-10-08T03:41:41;16.80;76.90
69382;DHT22;56560;50.692;12.844;2023-10-08T03:44:08;16.80;76.80
69382;DHT22;56560;50.692;12.844;2023-10-08T03:46:42;16.90;76.90
69382;DHT22;56560;50.692;12.844;2023-10-08T03:49:12;16.90;76.80
69382;DHT22;56560;50.692;12.844;2023-10-08T03:51:51;16.80;77.50
69382;DHT22;56560;50.692;12.844;2023-10-08T03:54:21;16.70;78.50
69382;DHT22;56560;50.692;12.844;2023-10-08T03:56:59;16.60;79.50
69382;DHT22;56560;50.692;12.844;2023-10-08T03:59:26;16.10;81.50
69382;DHT22;56560;50.692;12.844;2023-10-08T04:02:00;15.80;82.40
69382;DHT22;56560;50.692;12.844;2023-10-08T04:04:46;15.40;81.60
69382;DHT22;56560;50.692;12.844;2023-10-08T04:07:20;14.80;82.60
69382;DHT22;56560;50.692;12.844;2023-10-08T04:09:59;14.50;83.80
69382;DHT22;56560;50.692;12.844;2023-10-08T04:12:33;14.20;84.90
69382;DHT22;56560;50.692;12.844;2023-10-08T04:15:09;14.10;85.30
69382;DHT22;56560;50.692;12.844;2023-10-08T04:17:40;14.00;85.30
69382;DHT22;56560;50.692;12.844;2023-10-08T04:20:14;14.00;85.30
69382;DHT22;56560;50.692;12.844;2023-10-08T04:23:03;14.00;84.80
69382;DHT22;56560;50.692;12.844;2023-10-08T04:25:39;13.80;85.30
69382;DHT22;56560;50.692;12.844;2023-10-08T04:28:05;13.50;85.90
69382;DHT22;56560;50.692;12.844;2023-10-08T04:30:35;13.40;86.20
69382;DHT22;56560;50.692;12.844;2023-10-08T04:33:05;13.30;86.90
69382;DHT22;56560;50.692;12.844;2023-10-08T04:35:42;13.30;87.20
69382;DHT22;56560;50.692;12.844;2023-10-08T04:38:22;13.30;86.90
69382;DHT22;56560;50.692;12.844;2023-10-08T04:40:49;13.30;85.90
69382;DHT22;56560;50.692;12.844;2023-10-08T04:43:19;13.20;85.70
69382;DHT22;56560;50.692;12.844;2023-10-08T04:45:51;13.20;85.70
69382;DHT22;56560;50.692;12.844;2023-10-08T04:48:17;13.10;86.20
69382;DHT22;56560;50.692;12.844;2023-10-08T04:50:49;13.00;85.30
69382;DHT22;56560;50.692;12.844;2023-10-08T04:53:29;12.90;85.90
69382;DHT22;56560;50.692;12.844;2023-10-08T04:56:03;12.80;87.10
69382;DHT22;56560;50.692;12.844;2023-10-08T04:58:47;12.70;86.70
69382;DHT22;56560;50.692;12.844;2023-10-08T05:01:18;12.70;88.10
69382;DHT22;56560;50.692;12.844;2023-10-08T05:03:48;12.70;87.60
69382;DHT22;56560;50.692;12.844;2023-10-08T05:06:30;12.60;87.50
69382;DHT22;56560;50.692;12.844;2023-10-08T05:09:03;12.50;88.20
69382;DHT22;56560;50.692;12.844;2023-10-08T05:11:52;12.50;89.10
69382;DHT22;56560;50.692;12.844;2023-10-08T05:14:22;12.60;89.10
69382;DHT22;56560;50.692;12.844;2023-10-08T05:17:01;12.60;88.30
69382;DHT22;56560;50.692;12.844;2023-10-08T05:19:38;12.60;88.40
69382;DHT22;56560;50.692;12.844;2023-10-08T05:22:04;12.50;88.30
69382;DHT22;56560;50.692;12.844;2023-10-08T05:24:59;12.50;87.70
69382;DHT22;56560;50.692;12.844;2023-10-08T05:27:44;12.40;89.40
69382;DHT22;56560;50.692;12.844;2023-10-08T05:30:17;12.20;89.00
69382;DHT22;56560;50.692;12.844;2023-10-08T05:32:57;12.10;90.20
69382;DHT22;56560;50.692;12.844;2023-10-08T05:35:47;12.10;89.90
69382;DHT22;56560;50.692;12.844;2023-10-08T05:38:21;12.20;89.80
69382;DHT22;56560;50.692;12.844;2023-10-08T05:40:59;12.10;89.40
69382;DHT22;56560;50.692;12.844;2023-10-08T05:43:29;12.10;89.40
69382;DHT22;56560;50.692;12.844;2023-10-08T05:46:18;12.20;89.60
69382;DHT22;56560;50.692;12.844;2023-10-08T05:48:59;12.20;88.80
69382;DHT22;56560;50.692;12.844;2023-10-08T05:51:37;12.20;88.90
69382;DHT22;56560;50.692;12.844;2023-10-08T05:54:16;12.20;89.20
69382;DHT22;56560;50.692;12.844;2023-10-08T05:57:07;12.20;89.00
69382;DHT22;56560;50.692;12.844;2023-10-08T05:59:37;12.10;88.80
69382;DHT22;56560;50.692;12.844;2023-10-08T06:02:40;12.20;89.20
69382;DHT22;56560;50.692;12.844;2023-10-08T06:05:12;12.20;89.10
69382;DHT22;56560;50.692;12.844;2023-10-08T06:07:48;12.20;89.00
69382;DHT22;56560;50.692;12.844;2023-10-08T06:10:26;12.10;88.80
69382;DHT22;56560;50.692;12.844;2023-10-08T06:12:58;12.00;89.60
69382;DHT22;56560;50.692;12.844;2023-10-08T06:15:36;12.00;89.60
69382;DHT22;56560;50.692;12.844;2023-10-08T06:18:26;11.90;89.60
69382;DHT22;56560;50.692;12.844;2023-10-08T06:20:53;11.90;89.50
69382;DHT22;56560;50.692;12.844;2023-10-08T06:23:27;11.80;91.00
69382;DHT22;56560;50.692;12.844;2023-10-08T06:25:54;11.90;91.00
69382;DHT22;56560;50.692;12.844;2023-10-08T06:28:25;11.80;91.00
69382;DHT22;56560;50.692;12.844;2023-10-08T06:30:53;11.70;89.50
69382;DHT22;56560;50.692;12.844;2023-10-08T06:33:21;11.50;90.70
69382;DHT22;56560;50.692;12.844;2023-10-08T06:35:47;11.40;90.40
69382;DHT22;56560;50.692;12.844;2023-10-08T06:38:30;11.30;91.20
69382;DHT22;56560;50.692;12.844;2023-10-08T06:40:59;11.30;90.20
69382;DHT22;56560;50.692;12.844;2023-10-08T06:43:35;11.10;88.80
69382;DHT22;56560;50.692;12.844;2023-10-08T06:46:05;11.00;89.50
69382;DHT22;56560;50.692;12.844;2023-10-08T06:48:34;10.90;90.30
69382;DHT22;56560;50.692;12.844;2023-10-08T06:51:00;10.90;90.90
69382;DHT22;56560;50.692;12.844;2023-10-08T06:53:33;10.90;90.60
69382;DHT22;56560;50.692;12.844;2023-10-08T06:56:00;11.00;89.80
69382;DHT22;56560;50.692;12.844;2023-10-08T06:58:30;11.00;90.40
69382;DHT22;56560;50.692;12.844;2023-10-08T07:00:59;11.00;89.40
69382;DHT22;56560;50.692;12.844;2023-10-08T07:03:30;11.00;88.70
69382;DHT22;56560;50.692;12.844;2023-10-08T07:05:57;11.00;89.10
69382;DHT22;56560;50.692;12.844;2023-10-08T07:08:33;11.00;88.50
69382;DHT22;56560;50.692;12.844;2023-10-08T07:11:02;10.90;89.10
69382;DHT22;56560;50.692;12.844;2023-10-08T07:13:33;11.00;89.20
69382;DHT22;56560;50.692;12.844;2023-10-08T07:16:01;11.00;89.60
69382;DHT22;56560;50.692;12.844;2023-10-08T07:18:29;11.00;88.70
69382;DHT22;56560;50.692;12.844;2023-10-08T07:20:57;11.10;89.30
69382;DHT22;56560;50.692;12.844;2023-10-08T07:23:27;11.10;88.90
69382;DHT22;56560;50.692;12.844;2023-10-08T07:26:01;11.10;88.40
69382;DHT22;56560;50.692;12.844;2023-10-08T07:28:40;11.20;88.70
69382;DHT22;56560;50.692;12.844;2023-10-08T07:31:17;11.20;87.90
69382;DHT22;56560;50.692;12.844;2023-10-08T07:36:25;11.20;88.10
69382;DHT22;56560;50.692;12.844;2023-10-08T07:38:53;11.20;88.60
69382;DHT22;56560;50.692;12.844;2023-10-08T07:41:19;11.30;88.10
69382;DHT22;56560;50.692;12.844;2023-10-08T07:43:49;11.30;87.70
69382;DHT22;56560;50.692;12.844;2023-10-08T07:46:27;11.30;88.30
69382;DHT22;56560;50.692;12.844;2023-10-08T07:48:54;11.40;88.20
69382;DHT22;56560;50.692;12.844;2023-10-08T07:51:20;11.50;87.60
69382;DHT22;56560;50.692;12.844;2023-10-08T07:53:52;11.50;86.70
69382;DHT22;56560;50.692;12.844;2023-10-08T07:56:22;11.50;86.60
69382;DHT22;56560;50.692;12.844;2023-10-08T07:58:47;11.50;86.40
69382;DHT22;56560;50.692;12.844;2023-10-08T08:01:14;11.50;86.90
69382;DHT22;56560;50.692;12.844;2023-10-08T08:03:40;11.60;87.10
69382;DHT22;56560;50.692;12.844;2023-10-08T08:06:07;11.70;86.30
69382;DHT22;56560;50.692;12.844;2023-10-08T08:08:35;11.80;85.50
69382;DHT22;56560;50.692;12.844;2023-10-08T08:11:05;11.90;85.40
69382;DHT22;56560;50.692;12.844;2023-10-08T08:13:35;11.90;85.80
69382;DHT22;56560;50.692;12.844;2023-10-08T08:16:01;11.90;85.30
69382;DHT22;56560;50.692;12.844;2023-10-08T08:18:52;11.80;85.20
69382;DHT22;56560;50.692;12.844;2023-10-08T08:21:20;11.70;85.60
69382;DHT22;56560;50.692;12.844;2023-10-08T08:23:49;11.70;86.60
69382;DHT22;56560;50.692;12.844;2023-10-08T08:26:24;11.70;85.40
69382;DHT22;56560;50.692;12.844;2023-10-08T08:28:55;11.60;85.70
69382;DHT22;56560;50.692;12.844;2023-10-08T08:31:23;11.50;85.70
69382;DHT22;56560;50.692;12.844;2023-10-08T08:33:49;11.30;86.40
69382;DHT22;56560;50.692;12.844;2023-10-08T08:36:35;11.20;86.00
69382;DHT22;56560;50.692;12.844;2023-10-08T08:39:06;11.00;86.90
69382;DHT22;56560;50.692;12.844;2023-10-08T08:41:37;10.70;85.60
69382;DHT22;56560;50.692;12.844;2023-10-08T08:44:03;10.60;85.20
69382;DHT22;56560;50.692;12.844;2023-10-08T08:46:37;10.40;86.00
69382;DHT22;56560;50.692;12.844;2023-10-08T08:49:07;10.30;86.70
69382;DHT22;56560;50.692;12.844;2023-10-08T08:51:34;10.30;86.80
69382;DHT22;56560;50.692;12.844;2023-10-08T08:54:04;10.30;86.40
69382;DHT22;56560;50.692;12.844;2023-10-08T08:56:34;10.30;85.70
69382;DHT22;56560;50.692;12.844;2023-10-08T08:59:02;10.30;86.30
69382;DHT22;56560;50.692;12.844;2023-10-08T09:01:30;10.30;86.40
69382;DHT22;56560;50.692;12.844;2023-10-08T09:04:02;10.40;85.50
69382;DHT22;56560;50.692;12.844;2023-10-08T09:06:32;10.60;84.10
69382;DHT22;56560;50.692;12.844;2023-10-08T09:09:00;10.60;83.90
69382;DHT22;56560;50.692;12.844;2023-10-08T09:11:40;10.60;84.50
69382;DHT22;56560;50.692;12.844;2023-10-08T09:14:09;10.70;84.40
69382;DHT22;56560;50.692;12.844;2023-10-08T09:16:37;10.90;83.80
69382;DHT22;56560;50.692;12.844;2023-10-08T09:19:03;10.90;83.60
69382;DHT22;56560;50.692;12.844;2023-10-08T09:21:37;11.00;83.50
69382;DHT22;56560;50.692;12.844;2023-10-08T09:24:03;11.30;83.50
69382;DHT22;56560;50.692;12.844;2023-10-08T09:26:34;11.50;81.60
69382;DHT22;56560;50.692;12.844;2023-10-08T09:29:04;11.30;81.20
69382;DHT22;56560;50.692;12.844;2023-10-08T09:31:30;11.30;81.80
69382;DHT22;56560;50.692;12.844;2023-10-08T09:34:03;11.40;81.20
69382;DHT22;56560;50.692;12.844;2023-10-08T09:36:29;11.40;81.40
69382;DHT22;56560;50.692;12.844;2023-10-08T09:39:01;11.40;82.40
69382;DHT22;56560;50.692;12.844;2023-10-08T09:41:31;11.30;81.20
69382;DHT22;56560;50.692;12.844;2023-10-08T09:43:58;11.20;81.60
69382;DHT22;56560;50.692;12.844;2023-10-08T09:46:30;11.20;82.10
69382;DHT22;56560;50.692;12.844;2023-10-08T09:49:00;11.20;82.20
69382;DHT22;56560;50.692;12.844;2023-10-08T09:51:28;11.20;82.60
69382;DHT22;56560;50.692;12.844;2023-10-08T09:54:24;11.30;82.00
69382;DHT22;56560;50.692;12.844;2023-10-08T09:56:53;11.40;81.70
69382;DHT22;56560;50.692;12.844;2023-10-08T09:59:20;11.70;80.70
69382;DHT22;56560;50.692;12.844;2023-10-08T10:01:46;11.80;80.80
69382;DHT22;56560;50.692;12.844;2023-10-08T10:04:22;11.90;80.70
69382;DHT22;56560;50.692;12.844;2023-10-08T10:06:49;12.00;79.40
69382;DHT22;56560;50.692;12.844;2023-10-08T10:09:25;12.00;80.10
69382;DHT22;56560;50.692;12.844;2023-10-08T10:11:53;12.20;78.90
69382;DHT22;56560;50.692;12.844;2023-10-08T10:14:22;12.20;77.00
69382;DHT22;56560;50.692;12.844;2023-10-08T10:19:36;12.00;78.80
69382;DHT22;56560;50.692;12.844;2023-10-08T10:22:02;12.10;77.90
69382;DHT22;56560;50.692;12.844;2023-10-08T10:24:38;12.20;77.60
69382;DHT22;56560;50.692;12.844;2023-10-08T10:27:14;12.40;78.70
69382;DHT22;56560;50.692;12.844;2023-10-08T10:29:43;12.60;78.20
69382;DHT22;56560;50.692;12.844;2023-10-08T10:32:13;12.80;77.20
69382;DHT22;56560;50.692;12.844;2023-10-08T10:34:43;12.80;77.70
69382;DHT22;56560;50.692;12.844;2023-10-08T10:37:10;13.00;77.00
69382;DHT22;56560;50.692;12.844;2023-10-08T10:39:55;13.00;76.30
69382;DHT22;56560;50.692;12.844;2023-10-08T10:42:24;13.20;75.60
69382;DHT22;56560;50.692;12.844;2023-10-08T10:44:52;13.10;73.70
69382;DHT22;56560;50.692;12.844;2023-10-08T10:47:19;12.90;74.20
69382;DHT22;56560;50.692;12.844;2023-10-08T10:49:49;12.90;72.90
69382;DHT22;56560;50.692;12.844;2023-10-08T10:52:26;12.80;72.60
69382;DHT22;56560;50.692;12.844;2023-10-08T10:55:10;12.90;70.50
69382;DHT22;56560;50.692;12.844;2023-10-08T10:57:48;12.90;71.20
69382;DHT22;56560;50.692;12.844;2023-10-08T11:00:24;12.80;72.30
69382;DHT22;56560;50.692;12.844;2023-10-08T11:03:01;13.00;73.40
69382;DHT22;56560;50.692;12.844;2023-10-08T11:05:59;13.20;72.60
69382;DHT22;56560;50.692;12.844;2023-10-08T11:08:26;13.30;72.10
69382;DHT22;56560;50.692;12.844;2023-10-08T11:10:52;13.40;72.90
69382;DHT22;56560;50.692;12.844;2023-10-08T11:13:24;13.40;71.10
69382;DHT22;56560;50.692;12.844;2023-10-08T11:15:54;13.40;70.90
69382;DHT22;56560;50.692;12.844;2023-10-08T11:18:24;13.60;70.90
69382;DHT22;56560;50.692;12.844;2023-10-08T11:20:51;13.80;72.40
69382;DHT22;56560;50.692;12.844;2023-10-08T11:23:37;13.90;70.90
69382;DHT22;56560;50.692;12.844;2023-10-08T11:26:04;14.20;69.60
69382;DHT22;56560;50.692;12.844;2023-10-08T11:28:35;14.40;67.90
69382;DHT22;56560;50.692;12.844;2023-10-08T11:31:08;14.60;66.50
69382;DHT22;56560;50.692;12.844;2023-10-08T11:33:42;14.60;66.70
69382;DHT22;56560;50.692;12.844;2023-10-08T11:36:17;14.70;67.40
69382;DHT22;56560;50.692;12.844;2023-10-08T11:38:46;14.70;67.10
69382;DHT22;56560;50.692;12.844;2023-10-08T11:41:17;14.70;67.60
69382;DHT22;56560;50.692;12.844;2023-10-08T11:43:49;14.90;65.10
69382;DHT22;56560;50.692;12.844;2023-10-08T11:46:26;15.30;65.10
69382;DHT22;56560;50.692;12.844;2023-10-08T11:48:54;15.80;65.90
69382;DHT22;56560;50.692;12.844;2023-10-08T11:51:23;16.10;63.40
69382;DHT22;56560;50.692;12.844;2023-10-08T11:53:50;16.10;61.60
69382;DHT22;56560;50.692;12.844;2023-10-08T11:56:15;16.10;62.60
69382;DHT22;56560;50.692;12.844;2023-10-08T11:58:41;16.00;62.70
69382;DHT22;56560;50.692;12.844;2023-10-08T12:01:11;15.90;62.70
69382;DHT22;56560;50.692;12.844;2023-10-08T12:03:41;16.00;64.80
69382;DHT22;56560;50.692;12.844;2023-10-08T12:06:09;16.10;63.20
69382;DHT22;56560;50.692;12.844;2023-10-08T12:08:40;16.30;61.90
69382;DHT22;56560;50.692;12.844;2023-10-08T12:11:05;16.70;61.00
69382;DHT22;56560;50.692;12.844;2023-10-08T12:13:37;17.00;60.00
69382;DHT22;56560;50.692;12.844;2023-10-08T12:16:03;17.40;58.60
69382;DHT22;56560;50.692;12.844;2023-10-08T12:18:34;17.30;59.20
69382;DHT22;56560;50.692;12.844;2023-10-08T12:21:09;17.30;59.50
69382;DHT22;56560;50.692;12.844;2023-10-08T12:23:41;17.20;57.90
69382;DHT22;56560;50.692;12.844;2023-10-08T12:26:09;16.80;58.20
69382;DHT22;56560;50.692;12.844;2023-10-08T12:28:36;16.30;59.50
69382;DHT22;56560;50.692;12.844;2023-10-08T12:31:02;15.90;61.30
69382;DHT22;56560;50.692;12.844;2023-10-08T12:33:29;15.70;62.20
69382;DHT22;56560;50.692;12.844;2023-10-08T12:35:55;15.70;62.70
69382;DHT22;56560;50.692;12.844;2023-10-08T12:38:22;15.80;60.60
69382;DHT22;56560;50.692;12.844;2023-10-08T12:40:49;16.00;62.00
69382;DHT22;56560;50.692;12.844;2023-10-08T12:43:22;17.10;62.10
69382;DHT22;56560;50.692;12.844;2023-10-08T12:45:49;18.50;58.10
69382;DHT22;56560;50.692;12.844;2023-10-08T12:48:25;19.40;55.30
69382;DHT22;56560;50.692;12.844;2023-10-08T12:50:51;19.20;52.80
69382;DHT22;56560;50.692;12.844;2023-10-08T12:53:24;18.70;53.20
69382;DHT22;56560;50.692;12.844;2023-10-08T12:55:55;18.10;54.40
69382;DHT22;56560;50.692;12.844;2023-10-08T12:58:24;17.70;56.00
69382;DHT22;56560;50.692;12.844;2023-10-08T13:00:55;17.30;57.40
69382;DHT22;56560;50.692;12.844;2023-10-08T13:03:29;17.20;58.20
69382;DHT22;56560;50.692;12.844;2023-10-08T13:05:57;18.30;54.30
69382;DHT22;56560;50.692;12.844;2023-10-08T13:08:32;20.00;52.90
69382;DHT22;56560;50.692;12.844;2023-10-08T13:10:59;21.70;47.20
69382;DHT22;56560;50.692;12.844;2023-10-08T13:13:30;22.10;45.10
69382;DHT22;56560;50.692;12.844;2023-10-08T13:15:56;22.80;44.70
69382;DHT22;56560;50.692;12.844;2023-10-08T13:18:23;23.10;41.50
69382;DHT22;56560;50.692;12.844;2023-10-08T13:20:52;23.60;42.70
69382;DHT22;56560;50.692;12.844;2023-10-08T13:23:19;23.70;43.00
69382;DHT22;56560;50.692;12.844;2023-10-08T13:25:52;23.70;41.70
69382;DHT22;56560;50.692;12.844;2023-10-08T13:28:24;23.20;42.10
69382;DHT22;56560;50.692;12.844;2023-10-08T13:30:52;22.10;44.60
69382;DHT22;56560;50.692;12.844;2023-10-08T13:33:27;21.00;45.50
69382;DHT22;56560;50.692;12.844;2023-10-08T13:35:54;20.00;47.40
69382;DHT22;56560;50.692;12.844;2023-10-08T13:38:20;20.10;47.80
69382;DHT22;56560;50.692;12.844;2023-10-08T13:40:49;20.80;47.10
69382;DHT22;56560;50.692;12.844;2023-10-08T13:43:37;21.70;44.80
69382;DHT22;56560;50.692;12.844;2023-10-08T13:46:05;22.40;42.20
69382;DHT22;56560;50.692;12.844;2023-10-08T13:48:33;22.70;41.70
69382;DHT22;56560;50.692;12.844;2023-10-08T13:51:00;23.20;41.50
69382;DHT22;56560;50.692;12.844;2023-10-08T13:53:26;23.90;41.00
69382;DHT22;56560;50.692;12.844;2023-10-08T13:55:57;23.70;39.50
69382;DHT22;56560;50.692;12.844;2023-10-08T13:58:24;23.60;41.00
69382;DHT22;56560;50.692;12.844;2023-10-08T14:00:49;23.90;40.40
69382;DHT22;56560;50.692;12.844;2023-10-08T14:03:18;23.50;40.60
69382;DHT22;56560;50.692;12.844;2023-10-08T14:05:47;23.30;39.20
69382;DHT22;56560;50.692;12.844;2023-10-08T14:08:19;23.50;40.30
69382;DHT22;56560;50.692;12.844;2023-10-08T14:10:46;23.70;40.50
69382;DHT22;56560;50.692;12.844;2023-10-08T14:13:14;23.90;38.70
69382;DHT22;56560;50.692;12.844;2023-10-08T14:15:45;24.10;38.60
69382;DHT22;56560;50.692;12.844;2023-10-08T14:18:14;23.40;39.90
69382;DHT22;56560;50.692;12.844;2023-10-08T14:20:43;23.00;40.90
69382;DHT22;56560;50.692;12.844;2023-10-08T14:23:12;23.20;39.40
69382;DHT22;56560;50.692;12.844;2023-10-08T14:25:38;23.20;39.50
69382;DHT22;56560;50.692;12.844;2023-10-08T14:28:10;23.00;39.70
69382;DHT22;56560;50.692;12.844;2023-10-08T14:30:48;22.00;39.80
69382;DHT22;56560;50.692;12.844;2023-10-08T14:33:19;21.80;41.10
69382;DHT22;56560;50.692;12.844;2023-10-08T14:35:50;22.30;41.90
69382;DHT22;56560;50.692;12.844;2023-10-08T14:38:34;22.50;42.00
69382;DHT22;56560;50.692;12.844;2023-10-08T14:41:19;21.90;41.60
69382;DHT22;56560;50.692;12.844;2023-10-08T14:44:03;21.60;44.60
69382;DHT22;56560;50.692;12.844;2023-10-08T14:46:30;21.60;42.90
69382;DHT22;56560;50.692;12.844;2023-10-08T14:48:58;21.70;43.20
69382;DHT22;56560;50.692;12.844;2023-10-08T14:51:24;22.00;41.70
69382;DHT22;56560;50.692;12.844;2023-10-08T14:53:51;22.50;41.80
69382;DHT22;56560;50.692;12.844;2023-10-08T14:56:17;23.30;41.10
69382;DHT22;56560;50.692;12.844;2023-10-08T14:58:45;23.80;40.40
69382;DHT22;56560;50.692;12.844;2023-10-08T15:01:13;23.70;40.10
69382;DHT22;56560;50.692;12.844;2023-10-08T15:03:40;23.50;40.70
69382;DHT22;56560;50.692;12.844;2023-10-08T15:06:05;22.20;43.20
69382;DHT22;56560;50.692;12.844;2023-10-08T15:08:33;21.00;44.20
69382;DHT22;56560;50.692;12.844;2023-10-08T15:10:59;20.10;46.50
69382;DHT22;56560;50.692;12.844;2023-10-08T15:13:26;19.70;47.00
69382;DHT22;56560;50.692;12.844;2023-10-08T15:15:52;18.60;49.70
69382;DHT22;56560;50.692;12.844;2023-10-08T15:18:20;17.60;52.40
69382;DHT22;56560;50.692;12.844;2023-10-08T15:20:48;16.70;55.40
69382;DHT22;56560;50.692;12.844;2023-10-08T15:23:14;16.00;58.20
69382;DHT22;56560;50.692;12.844;2023-10-08T15:25:42;15.50;60.80
69382;DHT22;56560;50.692;12.844;2023-10-08T15:28:08;15.60;60.60
69382;DHT22;56560;50.692;12.844;2023-10-08T15:30:33;16.00;59.60
69382;DHT22;56560;50.692;12.844;2023-10-08T15:32:59;16.00;59.60
69382;DHT22;56560;50.692;12.844;2023-10-08T15:35:24;15.80;59.90
69382;DHT22;56560;50.692;12.844;2023-10-08T15:37:51;15.40;60.70
69382;DHT22;56560;50.692;12.844;2023-10-08T15:40:16;15.10;61.80
69382;DHT22;56560;50.692;12.844;2023-10-08T15:42:50;14.70;63.00
69382;DHT22;56560;50.692;12.844;2023-10-08T15:45:20;14.30;63.40